createdAt,value
2022-09-26T00:01:21.694Z,25.75
2022-09-26T00:03:52.412Z,25.63
2022-09-26T00:06:21.637Z,22.70
2022-09-26T00:08:50.274Z,24.17
2022-09-26T00:11:23.359Z,30.92
2022-09-26T00:13:55.992Z,27.45
2022-09-26T00:16:23.830Z,25.17
2022-09-26T00:18:56.702Z,23.30
2022-09-26T00:21:25.241Z,24.98
2022-09-26T00:23:53.772Z,24.95
2022-09-26T00:26:24.318Z,22.13
2022-09-26T00:28:52.107Z,23.30
2022-09-26T00:31:22.781Z,24.98
2022-09-26T00:33:50.204Z,21.60
2022-09-26T00:36:18.225Z,21.83
2022-09-26T00:38:46.494Z,29.67
2022-09-26T00:41:14.667Z,23.67
2022-09-26T00:43:46.611Z,24.92
2022-09-26T00:46:28.685Z,26.00
2022-09-26T00:49:07.835Z,26.75
2022-09-26T00:51:40.166Z,27.17
2022-09-26T00:54:11.453Z,25.23
2022-09-26T00:56:40.263Z,27.77
2022-09-26T00:59:11.686Z,30.40
2022-09-26T01:01:39.046Z,31.60
2022-09-26T01:04:07.947Z,32.22
2022-09-26T01:06:35.979Z,31.13
2022-09-26T01:09:09.245Z,30.83
2022-09-26T01:11:38.725Z,29.90
2022-09-26T01:14:09.081Z,29.02
2022-09-26T01:19:24.691Z,30.75
2022-09-26T01:21:57.719Z,27.40
2022-09-26T01:24:48.166Z,24.23
2022-09-26T01:27:18.053Z,32.85
2022-09-26T01:30:07.143Z,27.67
2022-09-26T01:32:59.971Z,32.40
2022-09-26T01:35:51.360Z,38.25
2022-09-26T01:38:27.390Z,34.83
2022-09-26T01:41:33.085Z,35.88
2022-09-26T01:44:33.795Z,28.00
2022-09-26T01:47:19.703Z,29.40
2022-09-26T01:49:56.121Z,26.08
2022-09-26T01:52:29.175Z,25.58
2022-09-26T01:55:10.617Z,28.23
2022-09-26T01:57:55.210Z,51.38
2022-09-26T02:00:22.913Z,27.27
2022-09-26T02:02:50.893Z,23.27
2022-09-26T02:05:33.753Z,23.02
2022-09-26T02:08:04.137Z,26.45
2022-09-26T02:13:11.589Z,25.45
2022-09-26T02:15:40.699Z,23.73
2022-09-26T02:18:20.885Z,23.35
2022-09-26T02:20:56.330Z,26.25
2022-09-26T02:23:24.491Z,25.08
2022-09-26T02:25:54.906Z,27.17
2022-09-26T02:28:22.285Z,24.23
2022-09-26T02:30:52.658Z,23.55
2022-09-26T02:33:20.062Z,23.52
2022-09-26T02:35:57.673Z,24.52
2022-09-26T02:38:38.905Z,22.10
2022-09-26T02:41:47.223Z,21.60
2022-09-26T02:44:30.837Z,20.20
2022-09-26T02:47:07.617Z,22.23
2022-09-26T02:50:26.517Z,22.75
2022-09-26T02:53:12.916Z,22.13
2022-09-26T02:56:03.556Z,22.10
2022-09-26T02:59:12.419Z,22.58
2022-09-26T03:01:47.438Z,22.58
2022-09-26T03:04:21.196Z,20.60
2022-09-26T03:06:53.732Z,20.67
2022-09-26T03:09:22.635Z,22.65
2022-09-26T03:11:54.268Z,19.42
2022-09-26T03:14:21.385Z,19.07
2022-09-26T03:16:50.873Z,18.90
2022-09-26T03:19:34.082Z,19.52
2022-09-26T03:22:02.571Z,20.70
2022-09-26T03:24:30.785Z,20.30
2022-09-26T03:27:00.657Z,20.30
2022-09-26T03:29:28.533Z,21.20
2022-09-26T03:31:55.835Z,17.38
2022-09-26T03:34:23.766Z,19.60
2022-09-26T03:36:52.738Z,15.65
2022-09-26T03:39:20.080Z,19.23
2022-09-26T03:41:57.665Z,17.98
2022-09-26T03:44:31.595Z,19.98
2022-09-26T03:47:04.872Z,16.45
2022-09-26T03:49:36.405Z,22.35
2022-09-26T03:52:03.983Z,20.83
2022-09-26T03:54:31.479Z,29.17
2022-09-26T03:56:58.860Z,23.08
2022-09-26T03:59:27.121Z,22.38
2022-09-26T04:01:54.691Z,21.83
2022-09-26T04:04:21.919Z,20.15
2022-09-26T04:06:51.344Z,22.02
2022-09-26T04:09:18.794Z,23.88
2022-09-26T04:11:49.846Z,21.30
2022-09-26T04:14:17.783Z,33.55
2022-09-26T04:16:49.058Z,47.67
2022-09-26T04:19:40.317Z,23.55
2022-09-26T04:22:10.152Z,22.98
2022-09-26T04:24:38.359Z,21.98
2022-09-26T04:27:06.531Z,21.73
2022-09-26T04:29:35.203Z,21.67
2022-09-26T04:32:31.659Z,22.60
2022-09-26T04:35:18.226Z,23.92
2022-09-26T04:37:46.417Z,25.42
2022-09-26T04:40:14.806Z,20.50
2022-09-26T04:42:53.213Z,20.85
2022-09-26T04:45:20.296Z,21.83
2022-09-26T04:47:47.852Z,19.70
2022-09-26T04:50:27.276Z,19.90
2022-09-26T04:53:09.184Z,22.58
2022-09-26T04:55:45.272Z,19.08
2022-09-26T04:58:15.418Z,16.23
2022-09-26T05:00:47.711Z,17.40
2022-09-26T05:03:18.105Z,17.52
2022-09-26T05:05:50.606Z,16.88
2022-09-26T05:08:17.766Z,17.15
2022-09-26T05:10:55.846Z,12.60
2022-09-26T05:13:24.216Z,12.90
2022-09-26T05:15:54.803Z,13.73
2022-09-26T05:18:26.483Z,12.27
2022-09-26T05:20:54.498Z,11.10
2022-09-26T05:23:44.952Z,11.05
2022-09-26T05:26:33.044Z,14.18
2022-09-26T05:29:07.769Z,15.32
2022-09-26T05:31:45.172Z,14.20
2022-09-26T05:34:19.175Z,12.85
2022-09-26T05:36:47.931Z,13.75
2022-09-26T05:39:35.785Z,11.63
2022-09-26T05:42:08.280Z,14.47
2022-09-26T05:44:35.511Z,16.50
2022-09-26T05:47:04.963Z,10.88
2022-09-26T05:49:34.997Z,19.45
2022-09-26T05:52:03.992Z,13.68
2022-09-26T05:54:31.261Z,16.80
2022-09-26T05:56:59.751Z,12.32
2022-09-26T05:59:32.392Z,8.70
2022-09-26T06:02:32.617Z,12.95
2022-09-26T06:05:17.225Z,11.68
2022-09-26T06:08:02.661Z,12.45
2022-09-26T06:10:36.069Z,10.90
2022-09-26T06:13:04.511Z,10.18
2022-09-26T06:15:37.828Z,10.60
2022-09-26T06:18:05.535Z,11.25
2022-09-26T06:20:33.557Z,9.63
2022-09-26T06:23:01.838Z,14.25
2022-09-26T06:25:29.747Z,8.18
2022-09-26T06:28:00.921Z,7.55
2022-09-26T06:30:29.944Z,10.35
2022-09-26T06:33:17.320Z,9.57
2022-09-26T06:36:14.266Z,9.90
2022-09-26T06:38:41.656Z,13.00
2022-09-26T06:41:17.496Z,6.95
2022-09-26T06:43:45.484Z,8.90
2022-09-26T06:46:34.213Z,11.25
2022-09-26T06:49:13.307Z,10.50
2022-09-26T06:51:49.229Z,17.48
2022-09-26T06:54:17.994Z,11.13
2022-09-26T06:56:45.237Z,10.27
2022-09-26T06:59:13.080Z,22.58
2022-09-26T07:01:50.522Z,9.65
2022-09-26T07:04:37.035Z,14.95
2022-09-26T07:07:17.095Z,14.85
2022-09-26T07:09:44.299Z,6.72
2022-09-26T07:12:40.480Z,4.78
2022-09-26T07:15:08.305Z,3.35
2022-09-26T07:17:35.941Z,4.85
2022-09-26T07:20:17.993Z,10.32
2022-09-26T07:23:08.746Z,6.55
2022-09-26T07:25:39.206Z,5.80
2022-09-26T07:30:59.038Z,8.32
2022-09-26T07:33:43.083Z,7.95
2022-09-26T07:36:12.417Z,8.15
2022-09-26T07:38:41.277Z,7.00
2022-09-26T07:41:10.970Z,4.78
2022-09-26T07:46:46.436Z,4.00
2022-09-26T07:49:33.391Z,6.25
2022-09-26T07:52:36.108Z,3.92
2022-09-26T07:55:27.024Z,4.05
2022-09-26T07:58:26.359Z,10.25
2022-09-26T08:01:11.571Z,4.35
2022-09-26T08:03:58.603Z,5.10
2022-09-26T08:06:33.205Z,3.25
2022-09-26T08:09:00.681Z,2.70
2022-09-26T08:11:46.948Z,3.10
2022-09-26T08:14:31.103Z,3.30
2022-09-26T08:17:14.374Z,4.60
2022-09-26T08:19:42.346Z,5.82
2022-09-26T08:22:10.234Z,4.45
2022-09-26T08:24:39.310Z,4.03
2022-09-26T08:27:18.446Z,4.70
2022-09-26T08:29:49.545Z,3.30
2022-09-26T08:32:20.708Z,7.65
2022-09-26T08:34:49.729Z,3.30
2022-09-26T08:37:35.380Z,6.28
2022-09-26T08:40:27.241Z,6.57
2022-09-26T08:43:50.322Z,5.13
2022-09-26T08:46:43.671Z,5.03
2022-09-26T08:50:01.739Z,2.78
2022-09-26T08:52:57.016Z,2.83
2022-09-26T08:55:27.489Z,3.13
2022-09-26T09:00:38.554Z,3.33
2022-09-26T09:03:32.498Z,2.67
2022-09-26T09:06:07.741Z,5.40
2022-09-26T09:08:40.686Z,4.97
2022-09-26T09:11:52.174Z,6.80
2022-09-26T09:15:20.443Z,6.60
2022-09-26T09:18:19.023Z,10.82
2022-09-26T09:21:15.911Z,8.17
2022-09-26T09:24:36.900Z,8.18
2022-09-26T09:30:47.132Z,3.67
2022-09-26T09:33:22.809Z,6.82
2022-09-26T09:36:15.335Z,6.55
2022-09-26T09:38:49.225Z,5.35
2022-09-26T09:41:25.039Z,5.80
2022-09-26T09:44:00.070Z,2.33
2022-09-26T09:46:29.834Z,4.18
2022-09-26T09:49:10.925Z,2.70
2022-09-26T09:51:56.244Z,4.18
2022-09-26T09:54:44.260Z,3.67
2022-09-26T09:57:38.437Z,4.60
2022-09-26T10:00:19.606Z,3.65
2022-09-26T10:03:26.709Z,4.90
2022-09-26T10:06:01.193Z,4.75
2022-09-26T10:08:42.858Z,3.75
2022-09-26T10:11:41.817Z,7.13
2022-09-26T10:14:34.316Z,1.77
2022-09-26T10:17:10.553Z,2.58
2022-09-26T10:20:35.320Z,2.10
2022-09-26T10:23:08.436Z,3.45
2022-09-26T10:25:38.353Z,3.60
2022-09-26T10:28:06.267Z,3.30
2022-09-26T10:30:48.973Z,3.22
2022-09-26T10:33:34.987Z,4.03
2022-09-26T10:36:28.209Z,3.05
2022-09-26T10:39:23.743Z,8.63
2022-09-26T10:45:16.849Z,1.08
2022-09-26T10:51:45.664Z,2.45
2022-09-26T10:54:24.219Z,4.22
2022-09-26T10:56:59.313Z,1.52
2022-09-26T10:59:36.406Z,5.38
2022-09-26T11:02:06.341Z,4.70
2022-09-26T11:04:54.715Z,4.57
2022-09-26T11:07:44.143Z,1.52
2022-09-26T11:10:34.246Z,3.67
2022-09-26T11:13:32.534Z,1.52
2022-09-26T11:16:14.555Z,6.80
2022-09-26T11:18:58.996Z,3.47
2022-09-26T11:21:37.496Z,3.58
2022-09-26T11:24:12.880Z,4.22
2022-09-26T11:27:06.450Z,5.38
2022-09-26T11:29:39.795Z,2.72
2022-09-26T11:32:27.681Z,3.60
2022-09-26T11:35:33.881Z,3.55
2022-09-26T11:38:15.071Z,7.50
2022-09-26T11:41:03.760Z,4.82
2022-09-26T11:43:48.560Z,4.38
2022-09-26T11:46:35.869Z,4.95
2022-09-26T11:49:44.366Z,4.15
2022-09-26T11:52:49.183Z,4.25
2022-09-26T11:55:37.350Z,2.65
2022-09-26T11:58:32.299Z,5.70
2022-09-26T12:01:20.897Z,5.70
2022-09-26T12:03:51.555Z,6.53
2022-09-26T12:06:33.726Z,4.45
2022-09-26T12:09:25.727Z,6.93
2022-09-26T12:12:00.217Z,4.82
2022-09-26T12:14:57.518Z,5.80
2022-09-26T12:17:43.420Z,8.35
2022-09-26T12:20:24.639Z,5.80
2022-09-26T12:23:14.489Z,5.65
2022-09-26T12:26:03.060Z,4.95
2022-09-26T12:28:59.198Z,6.03
2022-09-26T12:31:50.903Z,4.40
2022-09-26T12:34:24.185Z,4.70
2022-09-26T12:37:04.181Z,4.53
2022-09-26T12:39:53.679Z,5.50
2022-09-26T12:42:51.728Z,4.90
2022-09-26T12:45:57.261Z,2.38
2022-09-26T12:48:38.927Z,3.22
2022-09-26T12:51:34.924Z,2.33
2022-09-26T12:54:20.068Z,2.08
2022-09-26T12:57:11.658Z,2.05
2022-09-26T12:59:53.518Z,2.88
2022-09-26T13:02:33.795Z,2.67
2022-09-26T13:05:19.897Z,1.88
2022-09-26T13:08:10.020Z,4.97
2022-09-26T13:11:01.612Z,3.63
2022-09-26T13:13:37.458Z,6.50
2022-09-26T13:16:27.324Z,2.97
2022-09-26T13:19:23.080Z,7.13
2022-09-26T13:22:01.837Z,3.47
2022-09-26T13:24:57.808Z,8.30
2022-09-26T13:28:05.221Z,7.25
2022-09-26T13:30:47.040Z,4.70
2022-09-26T13:33:20.917Z,6.65
2022-09-26T13:35:52.135Z,4.38
2022-09-26T13:38:30.503Z,4.65
2022-09-26T13:41:20.657Z,7.45
2022-09-26T13:44:23.536Z,7.85
2022-09-26T13:47:01.902Z,3.90
2022-09-26T13:49:44.420Z,5.05
2022-09-26T13:52:34.405Z,5.70
2022-09-26T13:55:18.668Z,6.13
2022-09-26T13:57:50.315Z,4.45
2022-09-26T14:00:29.370Z,2.95
2022-09-26T14:03:17.876Z,6.22
2022-09-26T14:05:46.670Z,2.65
2022-09-26T14:08:44.961Z,2.95
2022-09-26T14:11:45.851Z,4.03
2022-09-26T14:14:19.404Z,5.00
2022-09-26T14:16:59.844Z,7.10
2022-09-26T14:19:45.399Z,3.97
2022-09-26T14:22:18.883Z,2.83
2022-09-26T14:24:47.386Z,4.50
2022-09-26T14:27:41.550Z,3.10
2022-09-26T14:30:30.046Z,2.17
2022-09-26T14:33:11.450Z,5.07
2022-09-26T14:35:39.116Z,3.67
2022-09-26T14:38:24.713Z,2.67
2022-09-26T14:40:58.231Z,3.58
2022-09-26T14:43:29.132Z,3.00
2022-09-26T14:46:15.809Z,4.90
2022-09-26T14:48:43.668Z,6.13
2022-09-26T14:51:16.053Z,5.03
2022-09-26T14:53:56.985Z,6.55
2022-09-26T14:56:29.599Z,5.03
2022-09-26T14:59:25.118Z,4.68
2022-09-26T15:01:55.255Z,15.95
2022-09-26T15:04:25.888Z,9.45
2022-09-26T15:06:56.662Z,11.50
2022-09-26T15:09:32.315Z,12.50
2022-09-26T15:12:04.118Z,8.18
2022-09-26T15:14:50.112Z,5.53
2022-09-26T15:17:26.272Z,8.55
2022-09-26T15:19:57.194Z,14.50
2022-09-26T15:22:27.209Z,5.55
2022-09-26T15:24:55.924Z,6.50
2022-09-26T15:27:29.542Z,4.22
2022-09-26T15:30:05.558Z,3.70
2022-09-26T15:32:34.493Z,3.17
2022-09-26T15:35:03.715Z,4.78
2022-09-26T15:37:36.601Z,13.73
2022-09-26T15:40:17.075Z,9.38
2022-09-26T15:43:01.564Z,10.32
2022-09-26T15:45:34.119Z,12.60
2022-09-26T15:48:04.557Z,8.65
2022-09-26T15:53:35.448Z,8.65
2022-09-26T15:56:08.399Z,9.93
2022-09-26T15:58:44.366Z,8.13
2022-09-26T16:01:20.261Z,9.10
2022-09-26T16:04:00.151Z,9.15
2022-09-26T16:07:04.008Z,14.10
2022-09-26T16:09:34.061Z,14.90
2022-09-26T16:12:10.484Z,24.45
2022-09-26T16:14:51.184Z,37.95
2022-09-26T16:17:21.678Z,43.22
2022-09-26T16:19:54.339Z,43.80
2022-09-26T16:22:23.052Z,43.70
2022-09-26T16:24:51.914Z,50.53
2022-09-26T16:27:27.086Z,60.00
2022-09-26T16:29:54.126Z,54.85
2022-09-26T16:32:23.256Z,49.22
2022-09-26T16:34:51.126Z,41.58
2022-09-26T16:37:20.349Z,35.03
2022-09-26T16:40:00.553Z,37.92
2022-09-26T16:42:32.997Z,28.38
2022-09-26T16:45:05.053Z,33.50
2022-09-26T16:47:44.288Z,35.40
2022-09-26T16:50:19.750Z,30.15
2022-09-26T16:52:46.748Z,38.42
2022-09-26T16:55:13.964Z,31.15
2022-09-26T16:58:12.921Z,35.15
2022-09-26T17:00:58.697Z,34.42
2022-09-26T17:03:33.083Z,34.88
2022-09-26T17:06:00.641Z,23.58
2022-09-26T17:08:28.825Z,17.38
2022-09-26T17:10:59.983Z,18.80
2022-09-26T17:13:31.351Z,17.05
2022-09-26T17:16:03.705Z,28.90
2022-09-26T17:18:33.449Z,24.05
2022-09-26T17:21:01.598Z,19.48
2022-09-26T17:23:45.566Z,15.63
2022-09-26T17:26:22.229Z,16.08
2022-09-26T17:28:51.176Z,17.85
2022-09-26T17:31:20.427Z,14.98
2022-09-26T17:33:51.669Z,16.95
2022-09-26T17:36:24.810Z,16.42
2022-09-26T17:38:52.073Z,17.65
2022-09-26T17:41:19.046Z,21.13
2022-09-26T17:43:46.118Z,16.63
2022-09-26T17:46:16.251Z,17.55
2022-09-26T17:51:14.533Z,21.17
2022-09-26T17:53:50.014Z,25.65
2022-09-26T17:56:18.032Z,23.88
2022-09-26T17:58:47.764Z,22.02
2022-09-26T18:01:25.666Z,20.45
2022-09-26T18:03:57.553Z,22.02
2022-09-26T18:06:31.827Z,23.27
2022-09-26T18:09:05.851Z,28.08
2022-09-26T18:11:34.777Z,28.90
2022-09-26T18:14:04.792Z,31.98
2022-09-26T18:16:32.080Z,36.53
2022-09-26T18:19:06.847Z,47.42
2022-09-26T18:21:47.901Z,60.97
2022-09-26T18:26:51.460Z,25.17
2022-09-26T18:29:34.557Z,26.83
2022-09-26T18:32:06.751Z,17.23
2022-09-26T18:34:34.354Z,17.75
2022-09-26T18:37:04.389Z,15.57
2022-09-26T18:42:24.743Z,14.32
2022-09-26T18:45:01.518Z,15.68
2022-09-26T18:47:36.490Z,15.18
2022-09-26T18:50:06.065Z,13.93
2022-09-26T18:52:33.640Z,16.27
2022-09-26T18:55:27.619Z,13.88
2022-09-26T18:58:13.470Z,13.82
2022-09-26T19:00:45.109Z,17.15
2022-09-26T19:03:12.254Z,13.95
2022-09-26T19:05:39.812Z,18.55
2022-09-26T19:08:09.838Z,14.00
2022-09-26T19:10:40.065Z,14.50
2022-09-26T19:13:10.183Z,18.27
2022-09-26T19:15:37.297Z,16.77
2022-09-26T19:18:08.298Z,15.65
2022-09-26T19:20:36.243Z,25.75
2022-09-26T19:23:16.897Z,19.63
2022-09-26T19:25:44.079Z,26.95
2022-09-26T19:28:25.051Z,30.65
2022-09-26T19:30:53.061Z,27.30
2022-09-26T19:33:21.853Z,22.02
2022-09-26T19:35:49.572Z,19.90
2022-09-26T19:38:22.808Z,15.43
2022-09-26T19:40:52.012Z,14.05
2022-09-26T19:43:21.322Z,13.67
2022-09-26T19:45:52.470Z,23.30
2022-09-26T19:48:24.337Z,25.05
2022-09-26T19:50:52.733Z,15.05
2022-09-26T19:53:22.450Z,16.50
2022-09-26T19:55:53.894Z,16.80
2022-09-26T19:58:22.038Z,16.45
2022-09-26T20:00:55.742Z,15.38
2022-09-26T20:03:25.657Z,16.42
2022-09-26T20:06:18.933Z,20.00
2022-09-26T20:08:46.119Z,15.75
2022-09-26T20:11:13.692Z,16.90
2022-09-26T20:13:59.308Z,16.88
2022-09-26T20:16:26.716Z,16.70
2022-09-26T20:22:43.381Z,20.10
2022-09-26T20:25:33.616Z,18.88
2022-09-26T20:28:01.020Z,16.00
2022-09-26T20:30:48.946Z,15.77
2022-09-26T20:33:23.352Z,16.77
2022-09-26T20:36:54.308Z,18.10
2022-09-26T20:39:26.180Z,15.50
2022-09-26T20:41:54.092Z,19.38
2022-09-26T20:44:27.518Z,18.33
2022-09-26T20:46:58.871Z,14.63
2022-09-26T20:49:30.941Z,16.52
2022-09-26T20:52:02.558Z,22.02
2022-09-26T20:54:32.744Z,14.50
2022-09-26T20:57:02.881Z,18.23
2022-09-26T20:59:30.260Z,15.55
2022-09-26T21:01:57.882Z,17.42
2022-09-26T21:04:32.257Z,111.18
2022-09-26T21:06:59.236Z,21.25
2022-09-26T21:09:26.252Z,14.90
2022-09-26T21:11:53.618Z,19.05
2022-09-26T21:14:23.866Z,21.25
2022-09-26T21:16:52.910Z,15.10
2022-09-26T21:19:25.067Z,14.82
2022-09-26T21:22:12.435Z,16.55
2022-09-26T21:24:49.315Z,12.23
2022-09-26T21:27:22.846Z,14.57
2022-09-26T21:29:50.343Z,17.77
2022-09-26T21:32:31.173Z,16.50
2022-09-26T21:35:03.863Z,15.30
2022-09-26T21:37:32.233Z,10.95
2022-09-26T21:40:10.759Z,9.20
2022-09-26T21:42:43.125Z,13.82
2022-09-26T21:45:16.032Z,25.13
2022-09-26T21:47:44.918Z,103.35
2022-09-26T21:50:13.270Z,72.50
2022-09-26T21:52:46.474Z,69.82
2022-09-26T21:55:24.010Z,52.42
2022-09-26T21:57:53.117Z,48.25
2022-09-26T22:00:21.934Z,50.25
2022-09-26T22:02:52.723Z,75.95
2022-09-26T22:05:29.257Z,71.13
2022-09-26T22:07:57.785Z,48.95
2022-09-26T22:10:53.774Z,42.22
2022-09-26T22:13:25.207Z,46.20
2022-09-26T22:15:54.799Z,38.65
2022-09-26T22:18:53.196Z,49.63
2022-09-26T22:21:20.725Z,35.97
2022-09-26T22:23:53.874Z,42.28
2022-09-26T22:26:25.111Z,45.83
2022-09-26T22:32:56.564Z,52.03
2022-09-26T22:35:24.305Z,58.50
2022-09-26T22:37:52.021Z,66.10
2022-09-26T22:40:19.202Z,64.28
2022-09-26T22:42:46.273Z,39.90
2022-09-26T22:45:13.412Z,53.80
2022-09-26T22:47:40.918Z,93.22
2022-09-26T22:50:08.452Z,72.50
2022-09-26T22:52:35.912Z,169.13
2022-09-26T22:55:03.302Z,177.23
2022-09-26T22:57:32.832Z,88.60
2022-09-26T23:00:02.014Z,173.07
2022-09-26T23:02:32.401Z,83.57
2022-09-26T23:04:59.972Z,87.85
2022-09-26T23:07:50.360Z,71.10
2022-09-26T23:10:22.328Z,58.58
2022-09-26T23:12:50.734Z,58.25
2022-09-26T23:15:18.744Z,69.53
2022-09-26T23:17:48.010Z,57.42
2022-09-26T23:20:16.112Z,45.45
2022-09-26T23:22:43.318Z,48.88
2022-09-26T23:25:17.863Z,37.42
2022-09-26T23:27:47.446Z,67.65
2022-09-26T23:30:14.644Z,45.20
2022-09-26T23:32:41.618Z,33.42
2022-09-26T23:35:09.254Z,29.42
2022-09-26T23:37:36.242Z,24.77
2022-09-26T23:40:03.950Z,33.08
2022-09-26T23:42:30.988Z,26.60
2022-09-26T23:44:58.081Z,30.27
2022-09-26T23:47:25.675Z,40.28
2022-09-26T23:49:52.606Z,37.03
2022-09-26T23:52:19.537Z,45.60
2022-09-26T23:54:47.405Z,51.42
2022-09-26T23:57:14.606Z,38.05
2022-09-26T23:59:41.723Z,35.25
